Flugplatz Neustadt/Aisch

Für EDQN sind keine METAR/TAF Berichte vorhanden.
Es werden die Flugwettermeldungen vom Flugplatz Illesheim Air Base in 18 km Entfernung angezeigt.

Bericht für ETIK

vom 23.02. um 23:04 UTC

Wind 13 kt aus 280°

Sichtweite 10 km oder mehr

gering bewölkt in 3000 ft

bedeckt in 3800 ft

Temperatur 7.0°C

Taupunkt 5.0°C

Luftfeuchtigkeit 87%

Luftdruck 1021 hPa

ETIK 232304Z AUTO 28013KT 9999 FEW030 OVC038 07/05 A3015 RMK AO2 RAE04 SLP216 $
Keine Prognose (TAF) verfügbar.
Impressum